sensor_id;sensor_type;location;lat;lon;timestamp;temperature;humidity
50690;DHT22;54375;48.298;11.238;2022-11-13T00:00:47;3.50;95.30
50690;DHT22;54375;48.298;11.238;2022-11-13T00:03:50;3.50;95.20
50690;DHT22;54375;48.298;11.238;2022-11-13T00:06:51;3.40;95.20
50690;DHT22;54375;48.298;11.238;2022-11-13T00:09:53;3.50;95.20
50690;DHT22;54375;48.298;11.238;2022-11-13T00:12:54;3.50;95.20
50690;DHT22;54375;48.298;11.238;2022-11-13T00:15:56;3.40;95.10
50690;DHT22;54375;48.298;11.238;2022-11-13T00:18:59;3.40;95.00
50690;DHT22;54375;48.298;11.238;2022-11-13T00:22:00;3.40;95.00
50690;DHT22;54375;48.298;11.238;2022-11-13T00:25:01;3.40;95.10
50690;DHT22;54375;48.298;11.238;2022-11-13T00:28:03;3.30;95.00
50690;DHT22;54375;48.298;11.238;2022-11-13T00:31:05;3.30;95.00
50690;DHT22;54375;48.298;11.238;2022-11-13T00:34:09;3.20;95.10
50690;DHT22;54375;48.298;11.238;2022-11-13T00:37:11;3.10;95.20
50690;DHT22;54375;48.298;11.238;2022-11-13T00:40:13;3.10;95.20
50690;DHT22;54375;48.298;11.238;2022-11-13T00:43:15;3.10;95.20
50690;DHT22;54375;48.298;11.238;2022-11-13T00:46:16;3.00;95.20
50690;DHT22;54375;48.298;11.238;2022-11-13T00:49:19;3.00;95.20
50690;DHT22;54375;48.298;11.238;2022-11-13T00:52:19;3.00;95.30
50690;DHT22;54375;48.298;11.238;2022-11-13T00:55:21;3.00;95.30
50690;DHT22;54375;48.298;11.238;2022-11-13T00:58:22;3.00;95.30
50690;DHT22;54375;48.298;11.238;2022-11-13T01:01:23;3.00;95.10
50690;DHT22;54375;48.298;11.238;2022-11-13T01:04:27;2.90;95.00
50690;DHT22;54375;48.298;11.238;2022-11-13T01:07:29;2.80;95.20
50690;DHT22;54375;48.298;11.238;2022-11-13T01:10:30;2.80;95.30
50690;DHT22;54375;48.298;11.238;2022-11-13T01:13:32;2.70;95.30
50690;DHT22;54375;48.298;11.238;2022-11-13T01:16:33;2.70;95.50
50690;DHT22;54375;48.298;11.238;2022-11-13T01:19:36;2.70;95.50
50690;DHT22;54375;48.298;11.238;2022-11-13T01:22:37;2.70;95.50
50690;DHT22;54375;48.298;11.238;2022-11-13T01:25:38;2.60;95.50
50690;DHT22;54375;48.298;11.238;2022-11-13T01:28:40;2.70;95.80
50690;DHT22;54375;48.298;11.238;2022-11-13T01:31:42;2.60;95.50
50690;DHT22;54375;48.298;11.238;2022-11-13T01:34:44;2.60;95.50
50690;DHT22;54375;48.298;11.238;2022-11-13T01:37:46;2.60;95.50
50690;DHT22;54375;48.298;11.238;2022-11-13T01:40:47;2.60;95.60
50690;DHT22;54375;48.298;11.238;2022-11-13T01:43:49;2.60;95.60
50690;DHT22;54375;48.298;11.238;2022-11-13T01:46:52;2.60;95.60
50690;DHT22;54375;48.298;11.238;2022-11-13T01:49:58;2.60;95.70
50690;DHT22;54375;48.298;11.238;2022-11-13T01:53:00;2.60;95.60
50690;DHT22;54375;48.298;11.238;2022-11-13T01:56:02;2.60;95.50
50690;DHT22;54375;48.298;11.238;2022-11-13T01:59:08;2.60;95.60
50690;DHT22;54375;48.298;11.238;2022-11-13T02:02:10;2.50;95.50
50690;DHT22;54375;48.298;11.238;2022-11-13T02:05:12;2.50;95.60
50690;DHT22;54375;48.298;11.238;2022-11-13T02:08:15;2.40;96.00
50690;DHT22;54375;48.298;11.238;2022-11-13T02:11:17;2.40;95.80
50690;DHT22;54375;48.298;11.238;2022-11-13T02:14:21;2.40;95.80
50690;DHT22;54375;48.298;11.238;2022-11-13T02:17:27;2.40;95.90
50690;DHT22;54375;48.298;11.238;2022-11-13T02:20:36;2.40;95.90
50690;DHT22;54375;48.298;11.238;2022-11-13T02:23:45;2.40;96.00
50690;DHT22;54375;48.298;11.238;2022-11-13T02:26:50;2.40;96.00
50690;DHT22;54375;48.298;11.238;2022-11-13T02:29:51;2.40;96.00
50690;DHT22;54375;48.298;11.238;2022-11-13T02:32:54;2.50;96.10
50690;DHT22;54375;48.298;11.238;2022-11-13T02:35:56;2.50;96.00
50690;DHT22;54375;48.298;11.238;2022-11-13T02:38:59;2.50;96.00
50690;DHT22;54375;48.298;11.238;2022-11-13T02:42:03;2.50;96.00
50690;DHT22;54375;48.298;11.238;2022-11-13T02:45:05;2.50;96.00
50690;DHT22;54375;48.298;11.238;2022-11-13T02:48:06;2.50;96.00
50690;DHT22;54375;48.298;11.238;2022-11-13T02:51:07;2.50;96.00
50690;DHT22;54375;48.298;11.238;2022-11-13T02:54:08;2.50;96.00
50690;DHT22;54375;48.298;11.238;2022-11-13T02:57:11;2.50;96.00
50690;DHT22;54375;48.298;11.238;2022-11-13T03:00:13;2.50;95.90
50690;DHT22;54375;48.298;11.238;2022-11-13T03:03:14;2.50;95.90
50690;DHT22;54375;48.298;11.238;2022-11-13T03:06:15;2.50;95.80
50690;DHT22;54375;48.298;11.238;2022-11-13T03:09:17;2.50;95.90
50690;DHT22;54375;48.298;11.238;2022-11-13T03:12:19;2.50;95.90
50690;DHT22;54375;48.298;11.238;2022-11-13T03:15:21;2.50;95.90
50690;DHT22;54375;48.298;11.238;2022-11-13T03:18:21;2.50;95.90
50690;DHT22;54375;48.298;11.238;2022-11-13T03:21:23;2.50;95.90
50690;DHT22;54375;48.298;11.238;2022-11-13T03:24:24;2.50;95.90
50690;DHT22;54375;48.298;11.238;2022-11-13T03:27:29;2.50;95.80
50690;DHT22;54375;48.298;11.238;2022-11-13T03:30:30;2.40;95.90
50690;DHT22;54375;48.298;11.238;2022-11-13T03:33:31;2.50;95.90
50690;DHT22;54375;48.298;11.238;2022-11-13T03:36:33;2.50;96.20
50690;DHT22;54375;48.298;11.238;2022-11-13T03:39:34;2.50;95.80
50690;DHT22;54375;48.298;11.238;2022-11-13T03:42:36;2.40;95.60
50690;DHT22;54375;48.298;11.238;2022-11-13T03:45:37;2.30;95.60
50690;DHT22;54375;48.298;11.238;2022-11-13T03:48:39;2.30;95.70
50690;DHT22;54375;48.298;11.238;2022-11-13T03:51:40;2.30;96.10
50690;DHT22;54375;48.298;11.238;2022-11-13T03:54:42;2.30;95.90
50690;DHT22;54375;48.298;11.238;2022-11-13T03:57:45;2.30;95.90
50690;DHT22;54375;48.298;11.238;2022-11-13T04:00:47;2.30;95.80
50690;DHT22;54375;48.298;11.238;2022-11-13T04:03:48;2.30;95.80
50690;DHT22;54375;48.298;11.238;2022-11-13T04:06:49;2.30;95.90
50690;DHT22;54375;48.298;11.238;2022-11-13T04:09:50;2.30;95.90
50690;DHT22;54375;48.298;11.238;2022-11-13T04:12:53;2.30;95.90
50690;DHT22;54375;48.298;11.238;2022-11-13T04:15:54;2.30;95.80
50690;DHT22;54375;48.298;11.238;2022-11-13T04:18:56;2.40;95.80
50690;DHT22;54375;48.298;11.238;2022-11-13T04:21:57;2.30;95.70
50690;DHT22;54375;48.298;11.238;2022-11-13T04:24:57;2.30;95.70
50690;DHT22;54375;48.298;11.238;2022-11-13T04:28:00;2.30;95.70
50690;DHT22;54375;48.298;11.238;2022-11-13T04:31:01;2.20;95.80
50690;DHT22;54375;48.298;11.238;2022-11-13T04:34:02;2.20;95.50
50690;DHT22;54375;48.298;11.238;2022-11-13T04:37:03;2.20;95.50
50690;DHT22;54375;48.298;11.238;2022-11-13T04:40:05;2.10;95.50
50690;DHT22;54375;48.298;11.238;2022-11-13T04:43:08;2.10;95.40
50690;DHT22;54375;48.298;11.238;2022-11-13T04:46:11;2.00;95.50
50690;DHT22;54375;48.298;11.238;2022-11-13T04:49:13;2.00;95.50
50690;DHT22;54375;48.298;11.238;2022-11-13T04:52:15;2.00;95.50
50690;DHT22;54375;48.298;11.238;2022-11-13T04:55:17;2.00;95.60
50690;DHT22;54375;48.298;11.238;2022-11-13T04:58:20;1.90;95.50
50690;DHT22;54375;48.298;11.238;2022-11-13T05:01:21;1.90;95.50
50690;DHT22;54375;48.298;11.238;2022-11-13T05:04:23;1.90;95.60
50690;DHT22;54375;48.298;11.238;2022-11-13T05:07:24;1.90;95.50
50690;DHT22;54375;48.298;11.238;2022-11-13T05:10:25;1.90;95.60
50690;DHT22;54375;48.298;11.238;2022-11-13T05:13:31;1.90;95.60
50690;DHT22;54375;48.298;11.238;2022-11-13T05:16:34;1.90;95.60
50690;DHT22;54375;48.298;11.238;2022-11-13T05:19:37;1.80;95.50
50690;DHT22;54375;48.298;11.238;2022-11-13T05:22:38;1.80;95.60
50690;DHT22;54375;48.298;11.238;2022-11-13T05:25:39;1.80;95.60
50690;DHT22;54375;48.298;11.238;2022-11-13T05:28:42;1.80;95.60
50690;DHT22;54375;48.298;11.238;2022-11-13T05:31:43;1.80;95.60
50690;DHT22;54375;48.298;11.238;2022-11-13T05:34:43;1.80;95.60
50690;DHT22;54375;48.298;11.238;2022-11-13T05:37:44;1.80;95.60
50690;DHT22;54375;48.298;11.238;2022-11-13T05:40:46;1.80;95.70
50690;DHT22;54375;48.298;11.238;2022-11-13T05:43:48;1.80;95.70
50690;DHT22;54375;48.298;11.238;2022-11-13T05:46:49;1.80;95.70
50690;DHT22;54375;48.298;11.238;2022-11-13T05:49:51;1.70;95.70
50690;DHT22;54375;48.298;11.238;2022-11-13T05:52:52;1.70;95.80
50690;DHT22;54375;48.298;11.238;2022-11-13T05:55:53;1.70;95.80
50690;DHT22;54375;48.298;11.238;2022-11-13T05:58:57;1.70;95.80
50690;DHT22;54375;48.298;11.238;2022-11-13T06:01:58;1.80;95.90
50690;DHT22;54375;48.298;11.238;2022-11-13T06:04:59;1.80;95.80
50690;DHT22;54375;48.298;11.238;2022-11-13T06:08:00;1.80;95.90
50690;DHT22;54375;48.298;11.238;2022-11-13T06:11:02;1.80;95.80
50690;DHT22;54375;48.298;11.238;2022-11-13T06:14:05;1.80;95.70
50690;DHT22;54375;48.298;11.238;2022-11-13T06:17:06;1.80;95.70
50690;DHT22;54375;48.298;11.238;2022-11-13T06:20:08;1.80;95.70
50690;DHT22;54375;48.298;11.238;2022-11-13T06:23:09;1.80;95.60
50690;DHT22;54375;48.298;11.238;2022-11-13T06:26:13;1.80;95.60
50690;DHT22;54375;48.298;11.238;2022-11-13T06:29:16;1.70;95.60
50690;DHT22;54375;48.298;11.238;2022-11-13T06:32:17;1.70;95.60
50690;DHT22;54375;48.298;11.238;2022-11-13T06:35:18;1.80;95.60
50690;DHT22;54375;48.298;11.238;2022-11-13T06:38:19;1.70;95.50
50690;DHT22;54375;48.298;11.238;2022-11-13T06:41:27;1.70;95.60
50690;DHT22;54375;48.298;11.238;2022-11-13T06:44:30;1.70;95.50
50690;DHT22;54375;48.298;11.238;2022-11-13T06:47:31;1.70;95.50
50690;DHT22;54375;48.298;11.238;2022-11-13T06:50:32;1.80;95.60
50690;DHT22;54375;48.298;11.238;2022-11-13T06:53:33;1.80;95.60
50690;DHT22;54375;48.298;11.238;2022-11-13T06:56:34;1.80;95.60
50690;DHT22;54375;48.298;11.238;2022-11-13T06:59:37;1.80;95.50
50690;DHT22;54375;48.298;11.238;2022-11-13T07:02:37;1.80;95.50
50690;DHT22;54375;48.298;11.238;2022-11-13T07:05:39;1.80;95.40
50690;DHT22;54375;48.298;11.238;2022-11-13T07:08:40;1.90;95.60
50690;DHT22;54375;48.298;11.238;2022-11-13T07:11:41;1.90;95.50
50690;DHT22;54375;48.298;11.238;2022-11-13T07:14:43;1.90;95.50
50690;DHT22;54375;48.298;11.238;2022-11-13T07:17:44;1.80;95.50
50690;DHT22;54375;48.298;11.238;2022-11-13T07:20:45;1.60;95.50
50690;DHT22;54375;48.298;11.238;2022-11-13T07:23:47;1.60;95.70
50690;DHT22;54375;48.298;11.238;2022-11-13T07:26:49;1.70;95.80
50690;DHT22;54375;48.298;11.238;2022-11-13T07:29:52;1.80;95.90
50690;DHT22;54375;48.298;11.238;2022-11-13T07:32:52;1.80;95.80
50690;DHT22;54375;48.298;11.238;2022-11-13T07:35:54;1.90;95.80
50690;DHT22;54375;48.298;11.238;2022-11-13T07:38:55;2.00;95.80
50690;DHT22;54375;48.298;11.238;2022-11-13T07:41:55;2.10;95.90
50690;DHT22;54375;48.298;11.238;2022-11-13T07:44:58;2.20;95.80
50690;DHT22;54375;48.298;11.238;2022-11-13T07:48:00;2.30;95.70
50690;DHT22;54375;48.298;11.238;2022-11-13T07:51:02;2.40;95.50
50690;DHT22;54375;48.298;11.238;2022-11-13T07:54:03;2.40;95.20
50690;DHT22;54375;48.298;11.238;2022-11-13T07:57:04;2.30;95.10
50690;DHT22;54375;48.298;11.238;2022-11-13T08:00:08;2.40;95.30
50690;DHT22;54375;48.298;11.238;2022-11-13T08:03:11;2.50;95.40
50690;DHT22;54375;48.298;11.238;2022-11-13T08:06:13;2.60;95.30
50690;DHT22;54375;48.298;11.238;2022-11-13T08:09:14;2.70;95.10
50690;DHT22;54375;48.298;11.238;2022-11-13T08:12:15;2.80;95.10
50690;DHT22;54375;48.298;11.238;2022-11-13T08:15:17;2.90;94.70
50690;DHT22;54375;48.298;11.238;2022-11-13T08:18:19;2.90;94.20
50690;DHT22;54375;48.298;11.238;2022-11-13T08:21:19;2.80;94.10
50690;DHT22;54375;48.298;11.238;2022-11-13T08:24:21;2.80;94.10
50690;DHT22;54375;48.298;11.238;2022-11-13T08:27:22;2.90;94.30
50690;DHT22;54375;48.298;11.238;2022-11-13T08:30:25;2.90;94.50
50690;DHT22;54375;48.298;11.238;2022-11-13T08:33:27;3.00;94.20
50690;DHT22;54375;48.298;11.238;2022-11-13T08:36:27;3.10;94.10
50690;DHT22;54375;48.298;11.238;2022-11-13T08:39:29;3.10;94.00
50690;DHT22;54375;48.298;11.238;2022-11-13T08:42:30;3.20;94.20
50690;DHT22;54375;48.298;11.238;2022-11-13T08:45:32;3.20;94.00
50690;DHT22;54375;48.298;11.238;2022-11-13T08:48:33;3.40;94.20
50690;DHT22;54375;48.298;11.238;2022-11-13T08:51:35;3.60;93.90
50690;DHT22;54375;48.298;11.238;2022-11-13T08:54:36;3.80;93.50
50690;DHT22;54375;48.298;11.238;2022-11-13T08:57:37;4.00;93.50
50690;DHT22;54375;48.298;11.238;2022-11-13T09:00:39;4.20;92.70
50690;DHT22;54375;48.298;11.238;2022-11-13T09:03:40;4.40;92.60
50690;DHT22;54375;48.298;11.238;2022-11-13T09:06:42;4.60;91.60
50690;DHT22;54375;48.298;11.238;2022-11-13T09:09:43;4.80;91.50
50690;DHT22;54375;48.298;11.238;2022-11-13T09:12:44;5.20;91.80
50690;DHT22;54375;48.298;11.238;2022-11-13T09:15:47;5.70;91.60
50690;DHT22;54375;48.298;11.238;2022-11-13T09:18:48;6.00;91.20
50690;DHT22;54375;48.298;11.238;2022-11-13T09:21:50;6.30;90.00
50690;DHT22;54375;48.298;11.238;2022-11-13T09:24:51;6.30;88.30
50690;DHT22;54375;48.298;11.238;2022-11-13T09:27:53;6.40;88.10
50690;DHT22;54375;48.298;11.238;2022-11-13T09:30:55;6.50;87.90
50690;DHT22;54375;48.298;11.238;2022-11-13T09:33:56;6.60;87.00
50690;DHT22;54375;48.298;11.238;2022-11-13T09:36:57;6.70;87.20
50690;DHT22;54375;48.298;11.238;2022-11-13T09:39:58;6.80;86.90
50690;DHT22;54375;48.298;11.238;2022-11-13T09:43:01;7.00;86.80
50690;DHT22;54375;48.298;11.238;2022-11-13T09:46:09;7.00;86.00
50690;DHT22;54375;48.298;11.238;2022-11-13T09:49:15;7.10;86.70
50690;DHT22;54375;48.298;11.238;2022-11-13T09:52:20;7.20;85.60
50690;DHT22;54375;48.298;11.238;2022-11-13T09:55:27;7.30;85.30
50690;DHT22;54375;48.298;11.238;2022-11-13T09:58:45;7.40;84.70
50690;DHT22;54375;48.298;11.238;2022-11-13T10:01:55;7.50;85.30
50690;DHT22;54375;48.298;11.238;2022-11-13T10:05:08;7.70;85.00
50690;DHT22;54375;48.298;11.238;2022-11-13T10:08:14;7.80;83.80
50690;DHT22;54375;48.298;11.238;2022-11-13T10:11:21;7.90;83.00
50690;DHT22;54375;48.298;11.238;2022-11-13T10:14:27;8.00;82.60
50690;DHT22;54375;48.298;11.238;2022-11-13T10:17:36;8.00;83.20
50690;DHT22;54375;48.298;11.238;2022-11-13T10:20:42;7.90;81.80
50690;DHT22;54375;48.298;11.238;2022-11-13T10:23:53;7.60;82.10
50690;DHT22;54375;48.298;11.238;2022-11-13T10:26:57;7.50;83.40
50690;DHT22;54375;48.298;11.238;2022-11-13T10:29:59;7.50;83.80
50690;DHT22;54375;48.298;11.238;2022-11-13T10:33:04;7.60;83.40
50690;DHT22;54375;48.298;11.238;2022-11-13T10:36:13;7.70;83.80
50690;DHT22;54375;48.298;11.238;2022-11-13T10:39:17;7.70;83.70
50690;DHT22;54375;48.298;11.238;2022-11-13T10:42:21;7.80;83.20
50690;DHT22;54375;48.298;11.238;2022-11-13T10:45:26;7.90;83.40
50690;DHT22;54375;48.298;11.238;2022-11-13T10:48:32;8.00;82.10
50690;DHT22;54375;48.298;11.238;2022-11-13T10:51:33;8.10;82.80
50690;DHT22;54375;48.298;11.238;2022-11-13T10:54:35;8.20;82.90
50690;DHT22;54375;48.298;11.238;2022-11-13T10:57:37;8.30;82.50
50690;DHT22;54375;48.298;11.238;2022-11-13T11:00:39;8.40;81.70
50690;DHT22;54375;48.298;11.238;2022-11-13T11:03:49;8.50;81.00
50690;DHT22;54375;48.298;11.238;2022-11-13T11:06:51;8.60;81.20
50690;DHT22;54375;48.298;11.238;2022-11-13T11:09:52;8.70;81.20
50690;DHT22;54375;48.298;11.238;2022-11-13T11:12:54;8.80;81.30
50690;DHT22;54375;48.298;11.238;2022-11-13T11:15:58;8.80;80.50
50690;DHT22;54375;48.298;11.238;2022-11-13T11:19:08;9.00;80.50
50690;DHT22;54375;48.298;11.238;2022-11-13T11:22:14;9.10;79.90
50690;DHT22;54375;48.298;11.238;2022-11-13T11:25:19;9.20;79.30
50690;DHT22;54375;48.298;11.238;2022-11-13T11:28:31;9.30;78.90
50690;DHT22;54375;48.298;11.238;2022-11-13T11:31:38;9.40;78.60
50690;DHT22;54375;48.298;11.238;2022-11-13T11:34:44;9.60;78.40
50690;DHT22;54375;48.298;11.238;2022-11-13T11:37:50;9.70;78.50
50690;DHT22;54375;48.298;11.238;2022-11-13T11:41:07;9.90;78.60
50690;DHT22;54375;48.298;11.238;2022-11-13T11:44:15;10.00;76.40
50690;DHT22;54375;48.298;11.238;2022-11-13T11:47:18;10.00;76.40
50690;DHT22;54375;48.298;11.238;2022-11-13T11:50:29;10.10;76.50
50690;DHT22;54375;48.298;11.238;2022-11-13T11:53:41;10.10;76.70
50690;DHT22;54375;48.298;11.238;2022-11-13T11:56:48;10.20;76.50
50690;DHT22;54375;48.298;11.238;2022-11-13T11:59:58;10.30;76.60
50690;DHT22;54375;48.298;11.238;2022-11-13T12:03:34;10.30;76.50
50690;DHT22;54375;48.298;11.238;2022-11-13T12:06:48;10.40;76.10
50690;DHT22;54375;48.298;11.238;2022-11-13T12:09:58;10.50;75.30
50690;DHT22;54375;48.298;11.238;2022-11-13T12:13:12;10.50;75.20
50690;DHT22;54375;48.298;11.238;2022-11-13T12:16:25;10.60;75.90
50690;DHT22;54375;48.298;11.238;2022-11-13T12:19:47;10.70;75.60
50690;DHT22;54375;48.298;11.238;2022-11-13T12:22:59;10.90;75.40
50690;DHT22;54375;48.298;11.238;2022-11-13T12:26:09;11.00;74.40
50690;DHT22;54375;48.298;11.238;2022-11-13T12:29:26;11.10;74.40
50690;DHT22;54375;48.298;11.238;2022-11-13T12:35:50;11.00;74.20
50690;DHT22;54375;48.298;11.238;2022-11-13T12:38:57;11.10;74.90
50690;DHT22;54375;48.298;11.238;2022-11-13T12:42:07;11.10;74.40
50690;DHT22;54375;48.298;11.238;2022-11-13T12:45:17;11.30;74.80
50690;DHT22;54375;48.298;11.238;2022-11-13T12:48:26;11.40;74.90
50690;DHT22;54375;48.298;11.238;2022-11-13T12:51:37;11.60;74.40
50690;DHT22;54375;48.298;11.238;2022-11-13T12:54:40;11.70;73.80
50690;DHT22;54375;48.298;11.238;2022-11-13T12:57:46;11.70;73.30
50690;DHT22;54375;48.298;11.238;2022-11-13T13:00:53;11.80;73.50
50690;DHT22;54375;48.298;11.238;2022-11-13T13:04:14;11.90;73.60
50690;DHT22;54375;48.298;11.238;2022-11-13T13:07:29;11.90;73.50
50690;DHT22;54375;48.298;11.238;2022-11-13T13:10:44;11.90;73.10
50690;DHT22;54375;48.298;11.238;2022-11-13T13:13:54;12.00;73.10
50690;DHT22;54375;48.298;11.238;2022-11-13T13:17:05;12.00;73.00
50690;DHT22;54375;48.298;11.238;2022-11-13T13:20:28;12.10;72.90
50690;DHT22;54375;48.298;11.238;2022-11-13T13:23:32;12.10;73.20
50690;DHT22;54375;48.298;11.238;2022-11-13T13:26:43;12.10;73.30
50690;DHT22;54375;48.298;11.238;2022-11-13T13:29:44;12.30;73.80
50690;DHT22;54375;48.298;11.238;2022-11-13T13:32:55;12.40;73.30
50690;DHT22;54375;48.298;11.238;2022-11-13T13:36:05;12.40;72.80
50690;DHT22;54375;48.298;11.238;2022-11-13T13:39:21;12.40;72.50
50690;DHT22;54375;48.298;11.238;2022-11-13T13:42:36;12.40;72.50
50690;DHT22;54375;48.298;11.238;2022-11-13T13:45:52;12.40;72.90
50690;DHT22;54375;48.298;11.238;2022-11-13T13:49:00;12.40;73.30
50690;DHT22;54375;48.298;11.238;2022-11-13T13:52:02;12.40;73.00
50690;DHT22;54375;48.298;11.238;2022-11-13T13:55:05;12.30;72.70
50690;DHT22;54375;48.298;11.238;2022-11-13T13:58:12;12.20;72.20
50690;DHT22;54375;48.298;11.238;2022-11-13T14:01:24;12.10;73.30
50690;DHT22;54375;48.298;11.238;2022-11-13T14:04:27;12.00;72.60
50690;DHT22;54375;48.298;11.238;2022-11-13T14:07:29;11.90;73.10
50690;DHT22;54375;48.298;11.238;2022-11-13T14:10:30;11.70;73.90
50690;DHT22;54375;48.298;11.238;2022-11-13T14:13:32;11.60;74.50
50690;DHT22;54375;48.298;11.238;2022-11-13T14:16:33;11.50;74.60
50690;DHT22;54375;48.298;11.238;2022-11-13T14:19:34;11.40;75.20
50690;DHT22;54375;48.298;11.238;2022-11-13T14:22:36;11.30;75.10
50690;DHT22;54375;48.298;11.238;2022-11-13T14:25:37;11.20;76.10
50690;DHT22;54375;48.298;11.238;2022-11-13T14:28:52;11.10;76.30
50690;DHT22;54375;48.298;11.238;2022-11-13T14:31:54;11.10;76.50
50690;DHT22;54375;48.298;11.238;2022-11-13T14:34:57;11.00;77.30
50690;DHT22;54375;48.298;11.238;2022-11-13T14:37:59;11.00;77.40
50690;DHT22;54375;48.298;11.238;2022-11-13T14:41:01;10.90;77.30
50690;DHT22;54375;48.298;11.238;2022-11-13T14:44:05;10.80;77.70
50690;DHT22;54375;48.298;11.238;2022-11-13T14:47:20;10.70;78.10
50690;DHT22;54375;48.298;11.238;2022-11-13T14:50:23;10.70;78.30
50690;DHT22;54375;48.298;11.238;2022-11-13T14:53:27;10.60;78.80
50690;DHT22;54375;48.298;11.238;2022-11-13T14:56:33;10.40;79.50
50690;DHT22;54375;48.298;11.238;2022-11-13T14:59:37;10.30;80.00
50690;DHT22;54375;48.298;11.238;2022-11-13T15:02:38;10.10;80.30
50690;DHT22;54375;48.298;11.238;2022-11-13T15:05:39;10.00;80.80
50690;DHT22;54375;48.298;11.238;2022-11-13T15:08:40;9.90;81.00
50690;DHT22;54375;48.298;11.238;2022-11-13T15:11:41;9.70;81.40
50690;DHT22;54375;48.298;11.238;2022-11-13T15:14:44;9.70;81.90
50690;DHT22;54375;48.298;11.238;2022-11-13T15:17:47;9.50;82.10
50690;DHT22;54375;48.298;11.238;2022-11-13T15:20:49;9.40;82.40
50690;DHT22;54375;48.298;11.238;2022-11-13T15:23:51;9.30;82.60
50690;DHT22;54375;48.298;11.238;2022-11-13T15:26:51;9.10;82.90
50690;DHT22;54375;48.298;11.238;2022-11-13T15:29:54;9.00;83.70
50690;DHT22;54375;48.298;11.238;2022-11-13T15:32:55;8.80;84.40
50690;DHT22;54375;48.298;11.238;2022-11-13T15:35:55;8.60;85.00
50690;DHT22;54375;48.298;11.238;2022-11-13T15:38:57;8.50;85.10
50690;DHT22;54375;48.298;11.238;2022-11-13T15:41:57;8.30;85.30
50690;DHT22;54375;48.298;11.238;2022-11-13T15:45:00;8.20;85.30
50690;DHT22;54375;48.298;11.238;2022-11-13T15:48:01;8.10;85.50
50690;DHT22;54375;48.298;11.238;2022-11-13T15:51:02;8.00;85.40
50690;DHT22;54375;48.298;11.238;2022-11-13T15:54:12;7.90;85.70
50690;DHT22;54375;48.298;11.238;2022-11-13T15:57:18;7.80;85.90
50690;DHT22;54375;48.298;11.238;2022-11-13T16:00:22;7.60;86.10
50690;DHT22;54375;48.298;11.238;2022-11-13T16:03:23;7.50;86.40
50690;DHT22;54375;48.298;11.238;2022-11-13T16:06:25;7.30;86.30
50690;DHT22;54375;48.298;11.238;2022-11-13T16:09:26;7.20;86.60
50690;DHT22;54375;48.298;11.238;2022-11-13T16:12:27;7.00;86.80
50690;DHT22;54375;48.298;11.238;2022-11-13T16:15:29;6.90;87.00
50690;DHT22;54375;48.298;11.238;2022-11-13T16:18:30;6.70;87.30
50690;DHT22;54375;48.298;11.238;2022-11-13T16:21:31;6.60;87.60
50690;DHT22;54375;48.298;11.238;2022-11-13T16:24:33;6.40;88.40
50690;DHT22;54375;48.298;11.238;2022-11-13T16:27:34;6.30;88.50
50690;DHT22;54375;48.298;11.238;2022-11-13T16:30:36;6.20;89.50
50690;DHT22;54375;48.298;11.238;2022-11-13T16:33:37;6.10;89.70
50690;DHT22;54375;48.298;11.238;2022-11-13T16:36:39;5.90;90.20
50690;DHT22;54375;48.298;11.238;2022-11-13T16:39:40;5.80;90.20
50690;DHT22;54375;48.298;11.238;2022-11-13T16:42:41;5.70;90.30
50690;DHT22;54375;48.298;11.238;2022-11-13T16:45:44;5.60;90.70
50690;DHT22;54375;48.298;11.238;2022-11-13T16:48:45;5.50;90.80
50690;DHT22;54375;48.298;11.238;2022-11-13T16:51:46;5.40;91.00
50690;DHT22;54375;48.298;11.238;2022-11-13T16:54:47;5.30;91.30
50690;DHT22;54375;48.298;11.238;2022-11-13T16:57:47;5.20;91.30
50690;DHT22;54375;48.298;11.238;2022-11-13T17:00:50;5.10;91.70
50690;DHT22;54375;48.298;11.238;2022-11-13T17:03:51;5.00;91.70
50690;DHT22;54375;48.298;11.238;2022-11-13T17:06:52;4.90;92.00
50690;DHT22;54375;48.298;11.238;2022-11-13T17:09:53;4.80;92.40
50690;DHT22;54375;48.298;11.238;2022-11-13T17:12:54;4.80;93.10
50690;DHT22;54375;48.298;11.238;2022-11-13T17:15:59;4.70;92.80
50690;DHT22;54375;48.298;11.238;2022-11-13T17:19:00;4.60;92.70
50690;DHT22;54375;48.298;11.238;2022-11-13T17:22:01;4.50;92.80
50690;DHT22;54375;48.298;11.238;2022-11-13T17:25:02;4.40;92.70
50690;DHT22;54375;48.298;11.238;2022-11-13T17:28:03;4.40;92.70
50690;DHT22;54375;48.298;11.238;2022-11-13T17:31:06;4.30;92.80
50690;DHT22;54375;48.298;11.238;2022-11-13T17:34:07;4.30;92.80
50690;DHT22;54375;48.298;11.238;2022-11-13T17:37:08;4.20;92.80
50690;DHT22;54375;48.298;11.238;2022-11-13T17:40:10;4.10;92.80
50690;DHT22;54375;48.298;11.238;2022-11-13T17:43:11;4.10;92.90
50690;DHT22;54375;48.298;11.238;2022-11-13T17:46:15;4.00;93.00
50690;DHT22;54375;48.298;11.238;2022-11-13T17:49:17;4.00;93.00
50690;DHT22;54375;48.298;11.238;2022-11-13T17:52:18;3.90;93.00
50690;DHT22;54375;48.298;11.238;2022-11-13T17:55:19;3.90;93.20
50690;DHT22;54375;48.298;11.238;2022-11-13T17:58:19;3.80;93.50
50690;DHT22;54375;48.298;11.238;2022-11-13T18:01:22;3.80;93.60
50690;DHT22;54375;48.298;11.238;2022-11-13T18:04:23;3.80;93.70
50690;DHT22;54375;48.298;11.238;2022-11-13T18:07:24;3.70;93.70
50690;DHT22;54375;48.298;11.238;2022-11-13T18:10:26;3.70;94.10
50690;DHT22;54375;48.298;11.238;2022-11-13T18:13:27;3.60;94.10
50690;DHT22;54375;48.298;11.238;2022-11-13T18:16:31;3.60;94.20
50690;DHT22;54375;48.298;11.238;2022-11-13T18:19:32;3.60;94.10
50690;DHT22;54375;48.298;11.238;2022-11-13T18:22:33;3.50;94.10
50690;DHT22;54375;48.298;11.238;2022-11-13T18:25:34;3.50;94.00
50690;DHT22;54375;48.298;11.238;2022-11-13T18:28:35;3.40;93.90
50690;DHT22;54375;48.298;11.238;2022-11-13T18:31:38;3.40;94.00
50690;DHT22;54375;48.298;11.238;2022-11-13T18:34:39;3.30;93.90
50690;DHT22;54375;48.298;11.238;2022-11-13T18:37:40;3.30;93.90
50690;DHT22;54375;48.298;11.238;2022-11-13T18:40:41;3.20;93.90
50690;DHT22;54375;48.298;11.238;2022-11-13T18:43:43;3.20;93.90
50690;DHT22;54375;48.298;11.238;2022-11-13T18:46:45;3.10;93.90
50690;DHT22;54375;48.298;11.238;2022-11-13T18:49:46;3.10;93.90
50690;DHT22;54375;48.298;11.238;2022-11-13T18:52:47;3.00;94.30
50690;DHT22;54375;48.298;11.238;2022-11-13T18:55:48;3.00;94.70
50690;DHT22;54375;48.298;11.238;2022-11-13T18:58:51;3.00;94.70
50690;DHT22;54375;48.298;11.238;2022-11-13T19:01:53;3.00;94.80
50690;DHT22;54375;48.298;11.238;2022-11-13T19:04:54;2.90;94.90
50690;DHT22;54375;48.298;11.238;2022-11-13T19:07:55;3.00;94.80
50690;DHT22;54375;48.298;11.238;2022-11-13T19:11:02;2.90;94.80
50690;DHT22;54375;48.298;11.238;2022-11-13T19:14:03;2.90;95.00
50690;DHT22;54375;48.298;11.238;2022-11-13T19:17:06;2.80;95.20